Time;durP1;ratioP1;P1;durP2;ratioP2;P2;SDS_P1;SDS_P2;PMS_P1;PMS_P2;Temp;Humidity;BMP_temperature;BMP_pressure;BME280_temperature;BME280_humidity;BME280_pressure;Samples;Min_cycle;Max_cycle;Signal;HPM_P1;HPM_P2
2022/10/20 00:00:23;;;;;;;12.35;5.97;;;;;;;;;;5076674;28;20119;-72
2022/10/20 00:02:49;;;;;;;10.27;6.13;;;;;;;;;;5061159;28;20043;-72
2022/10/20 00:05:16;;;;;;;10.77;5.53;;;;;;;;;;5049017;28;20045;-71
2022/10/20 00:07:42;;;;;;;11.57;5.97;;;;;;;;;;5044449;28;20056;-72
2022/10/20 00:10:08;;;;;;;12.88;6.30;;;;;;;;;;5052664;28;20127;-72
2022/10/20 00:12:34;;;;;;;10.45;5.35;;;;;;;;;;5076194;28;20036;-72
2022/10/20 00:15:00;;;;;;;8.63;5.95;;;;;;;;;;5077035;28;20526;-72
2022/10/20 00:17:26;;;;;;;11.20;5.13;;;;;;;;;;5070250;28;20045;-72
2022/10/20 00:19:52;;;;;;;8.38;5.63;;;;;;;;;;5069089;28;20090;-72
2022/10/20 00:22:19;;;;;;;8.95;5.20;;;;;;;;;;5071387;28;20047;-72
2022/10/20 00:24:45;;;;;;;9.27;5.75;;;;;;;;;;5079431;28;20040;-72
2022/10/20 00:27:11;;;;;;;11.05;5.47;;;;;;;;;;5076135;28;20091;-72
2022/10/20 00:29:37;;;;;;;10.73;5.82;;;;;;;;;;5078387;28;20047;-72
2022/10/20 00:32:03;;;;;;;14.40;6.22;;;;;;;;;;5078088;28;20153;-73
2022/10/20 00:34:29;;;;;;;10.32;5.70;;;;;;;;;;5077238;28;20043;-72
2022/10/20 00:36:55;;;;;;;12.52;6.18;;;;;;;;;;5077734;28;20055;-71
2022/10/20 00:39:21;;;;;;;11.93;6.15;;;;;;;;;;5075208;28;20083;-72
2022/10/20 00:41:47;;;;;;;13.93;7.00;;;;;;;;;;5078131;28;20040;-71
2022/10/20 00:44:32;;;;;;;12.00;5.68;;;;;;;;;;5077285;28;20116;-72
2022/10/20 00:46:58;;;;;;;12.90;6.43;;;;;;;;;;5077240;28;20617;-72
2022/10/20 00:49:25;;;;;;;14.30;6.07;;;;;;;;;;5044824;28;20529;-72
2022/10/20 00:51:52;;;;;;;9.05;5.90;;;;;;;;;;5067622;28;20037;-72
2022/10/20 00:54:21;;;;;;;8.88;5.25;;;;;;;;;;5070319;28;20077;-72
2022/10/20 00:56:48;;;;;;;12.48;5.18;;;;;;;;;;5050545;28;20053;-72
2022/10/20 00:59:15;;;;;;;11.20;6.53;;;;;;;;;;5072126;28;20032;-72
2022/10/20 01:01:42;;;;;;;10.35;5.78;;;;;;;;;;5050882;28;20041;-72
2022/10/20 01:04:08;;;;;;;9.43;6.53;;;;;;;;;;5074201;28;20040;-72
2022/10/20 01:06:34;;;;;;;9.10;4.95;;;;;;;;;;5065404;28;20041;-72
2022/10/20 01:09:00;;;;;;;15.88;6.28;;;;;;;;;;5072086;28;20044;-72
2022/10/20 01:11:33;;;;;;;16.17;6.32;;;;;;;;;;5072404;28;20051;-72
2022/10/20 01:14:11;;;;;;;11.40;5.40;;;;;;;;;;5075307;28;20071;-72
2022/10/20 01:17:07;;;;;;;10.40;5.22;;;;;;;;;;5074248;28;20049;-72
2022/10/20 01:19:42;;;;;;;14.27;6.47;;;;;;;;;;4980578;28;20591;-71
2022/10/20 01:22:15;;;;;;;9.88;4.75;;;;;;;;;;5072043;28;20091;-72
2022/10/20 01:24:48;;;;;;;12.60;6.53;;;;;;;;;;5051731;28;20159;-72
2022/10/20 01:27:17;;;;;;;11.45;5.43;;;;;;;;;;5075836;28;20044;-72
2022/10/20 01:29:52;;;;;;;11.60;4.97;;;;;;;;;;5072165;28;20036;-72
2022/10/20 01:32:25;;;;;;;12.85;5.55;;;;;;;;;;5075569;28;20098;-73
2022/10/20 01:35:09;;;;;;;13.70;5.38;;;;;;;;;;5074807;28;20032;-72
2022/10/20 01:37:40;;;;;;;13.38;5.43;;;;;;;;;;5073789;28;20044;-72
2022/10/20 01:40:11;;;;;;;11.55;5.35;;;;;;;;;;5071433;28;20079;-72
2022/10/20 01:42:39;;;;;;;12.85;5.38;;;;;;;;;;5058660;28;20439;-73
2022/10/20 01:45:06;;;;;;;12.95;5.70;;;;;;;;;;5057520;28;20095;-72
2022/10/20 01:47:34;;;;;;;11.82;5.22;;;;;;;;;;5038521;28;20041;-72
2022/10/20 01:50:01;;;;;;;10.82;5.45;;;;;;;;;;5054370;28;20037;-72
2022/10/20 01:52:28;;;;;;;12.30;5.35;;;;;;;;;;5077187;28;20044;-72
2022/10/20 01:54:54;;;;;;;13.57;5.68;;;;;;;;;;5052389;28;20589;-72
2022/10/20 01:57:39;;;;;;;12.98;6.78;;;;;;;;;;5075265;28;20044;-71
2022/10/20 02:00:15;;;;;;;12.48;5.78;;;;;;;;;;5078617;28;20047;-72
2022/10/20 02:02:48;;;;;;;13.48;6.65;;;;;;;;;;5066029;28;20482;-73
2022/10/20 02:05:33;;;;;;;13.60;5.82;;;;;;;;;;5052073;28;20055;-72
2022/10/20 02:08:21;;;;;;;15.48;5.57;;;;;;;;;;5050022;28;20045;-71
2022/10/20 02:10:49;;;;;;;13.63;6.30;;;;;;;;;;5066963;28;20116;-73
2022/10/20 02:13:17;;;;;;;12.35;5.32;;;;;;;;;;5049363;28;20558;-72
2022/10/20 02:15:45;;;;;;;8.98;5.65;;;;;;;;;;5058530;28;20052;-72
2022/10/20 02:18:13;;;;;;;11.55;4.60;;;;;;;;;;5066103;28;20260;-72
2022/10/20 02:20:41;;;;;;;13.52;6.57;;;;;;;;;;5050173;28;20131;-71
2022/10/20 02:23:07;;;;;;;10.73;4.78;;;;;;;;;;5073772;28;20064;-72
2022/10/20 02:25:33;;;;;;;12.85;5.20;;;;;;;;;;5073766;28;20068;-72
2022/10/20 02:28:00;;;;;;;16.83;6.07;;;;;;;;;;5074829;28;20036;-72
2022/10/20 02:30:26;;;;;;;14.73;5.30;;;;;;;;;;5072244;28;20056;-72
2022/10/20 02:32:52;;;;;;;11.75;4.72;;;;;;;;;;5054424;28;20040;-72
2022/10/20 02:35:22;;;;;;;12.57;4.72;;;;;;;;;;5073851;28;20044;-72
2022/10/20 02:37:49;;;;;;;10.73;4.80;;;;;;;;;;5055410;28;20522;-72
2022/10/20 02:40:15;;;;;;;11.85;4.82;;;;;;;;;;5055024;28;20044;-73
2022/10/20 02:42:42;;;;;;;12.05;4.82;;;;;;;;;;5050894;28;20037;-72
2022/10/20 02:45:08;;;;;;;10.45;5.60;;;;;;;;;;5072095;28;20114;-72
2022/10/20 02:47:38;;;;;;;14.32;7.30;;;;;;;;;;5073355;28;20114;-72
2022/10/20 02:50:04;;;;;;;15.77;4.72;;;;;;;;;;5059003;28;20045;-72
2022/10/20 02:52:30;;;;;;;10.32;3.95;;;;;;;;;;5050625;28;20040;-72
2022/10/20 02:54:56;;;;;;;10.85;5.18;;;;;;;;;;5054836;28;20047;-72
2022/10/20 02:57:22;;;;;;;12.07;5.50;;;;;;;;;;5075570;28;20048;-72
2022/10/20 02:59:48;;;;;;;9.50;5.22;;;;;;;;;;5075190;28;20572;-72
2022/10/20 03:02:14;;;;;;;10.65;5.35;;;;;;;;;;5075245;28;20588;-72
2022/10/20 03:04:41;;;;;;;11.90;4.93;;;;;;;;;;5047880;28;20569;-72
2022/10/20 03:07:07;;;;;;;11.23;5.15;;;;;;;;;;5054585;28;20044;-73
2022/10/20 03:09:33;;;;;;;13.40;5.22;;;;;;;;;;5070165;28;20098;-71
2022/10/20 03:11:59;;;;;;;11.95;4.85;;;;;;;;;;5071149;28;20036;-74
2022/10/20 03:14:25;;;;;;;15.43;5.75;;;;;;;;;;5068337;28;20041;-73
2022/10/20 03:16:51;;;;;;;24.52;5.38;;;;;;;;;;5072829;28;20037;-71
2022/10/20 03:19:18;;;;;;;7.90;4.10;;;;;;;;;;5061887;28;20083;-72
2022/10/20 03:21:45;;;;;;;15.02;4.55;;;;;;;;;;5070819;28;20114;-71
2022/10/20 03:24:11;;;;;;;12.10;4.45;;;;;;;;;;5072551;28;20102;-71
2022/10/20 03:26:37;;;;;;;13.05;5.25;;;;;;;;;;5072781;28;20045;-71
2022/10/20 03:29:03;;;;;;;9.77;4.97;;;;;;;;;;5074640;28;20059;-71
2022/10/20 03:31:29;;;;;;;10.13;5.53;;;;;;;;;;5047632;28;20152;-72
2022/10/20 03:33:55;;;;;;;9.93;5.15;;;;;;;;;;5048734;28;20040;-71
2022/10/20 03:36:21;;;;;;;7.57;3.65;;;;;;;;;;5043833;28;20045;-72
2022/10/20 03:38:47;;;;;;;12.88;4.53;;;;;;;;;;5071705;28;20041;-71
2022/10/20 03:41:13;;;;;;;13.57;4.35;;;;;;;;;;5070497;28;20882;-72
2022/10/20 03:43:40;;;;;;;8.00;3.40;;;;;;;;;;5073465;28;20044;-73
2022/10/20 03:46:07;;;;;;;9.02;3.38;;;;;;;;;;5072840;28;20048;-71
2022/10/20 03:48:34;;;;;;;6.03;3.20;;;;;;;;;;5053248;28;20044;-70
2022/10/20 03:51:00;;;;;;;12.32;3.50;;;;;;;;;;5067197;28;21579;-71
2022/10/20 03:53:26;;;;;;;7.90;2.60;;;;;;;;;;5072769;28;20044;-71
2022/10/20 03:55:52;;;;;;;5.82;2.50;;;;;;;;;;5070504;28;20762;-72
2022/10/20 03:58:18;;;;;;;5.80;2.25;;;;;;;;;;5059328;28;20045;-72
2022/10/20 04:00:45;;;;;;;5.03;1.95;;;;;;;;;;5067577;28;20048;-73
2022/10/20 04:03:12;;;;;;;8.13;2.40;;;;;;;;;;5041074;28;20050;-71
2022/10/20 04:05:38;;;;;;;10.15;2.83;;;;;;;;;;5073123;28;20051;-72
2022/10/20 04:08:04;;;;;;;4.82;1.90;;;;;;;;;;5048269;28;20103;-71
2022/10/20 04:10:30;;;;;;;5.32;1.77;;;;;;;;;;5048258;28;20152;-71
2022/10/20 04:13:02;;;;;;;3.20;1.80;;;;;;;;;;5072520;28;20032;-72
2022/10/20 04:15:34;;;;;;;7.60;1.83;;;;;;;;;;5063858;28;20076;-72
2022/10/20 04:18:00;;;;;;;6.55;1.80;;;;;;;;;;5049414;28;20040;-71
2022/10/20 04:20:26;;;;;;;4.57;1.88;;;;;;;;;;5062870;28;20040;-72
2022/10/20 04:22:55;;;;;;;4.63;2.28;;;;;;;;;;5076147;28;20032;-71
2022/10/20 04:25:22;;;;;;;4.72;1.85;;;;;;;;;;5048895;28;20546;-72
2022/10/20 04:27:53;;;;;;;6.15;2.55;;;;;;;;;;5065056;28;20169;-71
2022/10/20 04:30:21;;;;;;;4.40;1.83;;;;;;;;;;5076880;28;20044;-77
2022/10/20 04:32:47;;;;;;;4.13;1.65;;;;;;;;;;5074941;28;20037;-70
2022/10/20 04:35:14;;;;;;;3.20;2.50;;;;;;;;;;5075150;28;20119;-71
2022/10/20 04:37:40;;;;;;;4.10;1.27;;;;;;;;;;5045075;28;20049;-70
2022/10/20 04:40:06;;;;;;;5.97;2.08;;;;;;;;;;5076185;28;20052;-70
2022/10/20 04:42:35;;;;;;;2.45;1.35;;;;;;;;;;5050349;28;20041;-71
2022/10/20 04:45:01;;;;;;;5.75;1.70;;;;;;;;;;5053760;28;20041;-72
2022/10/20 04:47:31;;;;;;;4.18;1.90;;;;;;;;;;5077445;28;20174;-71
2022/10/20 04:49:57;;;;;;;4.03;1.75;;;;;;;;;;5051443;28;20047;-71
2022/10/20 04:52:24;;;;;;;7.35;1.75;;;;;;;;;;5077282;28;20044;-72
2022/10/20 04:54:50;;;;;;;3.70;2.03;;;;;;;;;;5077202;28;20615;-71
2022/10/20 04:57:16;;;;;;;4.30;1.50;;;;;;;;;;5076739;28;20076;-72
2022/10/20 04:59:45;;;;;;;6.35;1.60;;;;;;;;;;5077588;28;20045;-72
2022/10/20 05:02:11;;;;;;;7.95;2.13;;;;;;;;;;5074414;28;20044;-71
2022/10/20 05:04:37;;;;;;;7.57;1.75;;;;;;;;;;5075582;28;20087;-71
2022/10/20 05:07:03;;;;;;;4.20;1.67;;;;;;;;;;5060119;28;20064;-71
2022/10/20 05:09:32;;;;;;;4.10;1.40;;;;;;;;;;5058556;28;20098;-71
2022/10/20 05:11:58;;;;;;;2.60;1.45;;;;;;;;;;5072965;28;20048;-71
2022/10/20 05:14:25;;;;;;;4.85;2.75;;;;;;;;;;5062115;28;20088;-73
2022/10/20 05:16:51;;;;;;;8.95;1.60;;;;;;;;;;5076723;28;20044;-71
2022/10/20 05:19:17;;;;;;;3.95;1.48;;;;;;;;;;5052056;28;20036;-71
2022/10/20 05:21:43;;;;;;;4.55;1.67;;;;;;;;;;5060361;28;20047;-71
2022/10/20 05:24:17;;;;;;;3.00;1.40;;;;;;;;;;5077884;28;20048;-71
2022/10/20 05:26:43;;;;;;;4.60;1.30;;;;;;;;;;5058215;28;20090;-71
2022/10/20 05:29:10;;;;;;;4.45;1.75;;;;;;;;;;5059287;28;20173;-71
2022/10/20 05:31:37;;;;;;;2.95;1.20;;;;;;;;;;5051265;28;21313;-70
2022/10/20 05:34:03;;;;;;;6.70;1.80;;;;;;;;;;5078203;28;20041;-71
2022/10/20 05:36:29;;;;;;;1.65;0.88;;;;;;;;;;5054665;28;20094;-71
2022/10/20 05:38:56;;;;;;;6.30;1.23;;;;;;;;;;5058537;28;20029;-71
2022/10/20 05:41:23;;;;;;;2.90;1.23;;;;;;;;;;5072413;28;20040;-71
2022/10/20 05:43:50;;;;;;;4.80;2.13;;;;;;;;;;5077814;28;20802;-72
2022/10/20 05:46:16;;;;;;;4.13;1.65;;;;;;;;;;5061257;28;20052;-71
2022/10/20 05:48:42;;;;;;;1.88;1.30;;;;;;;;;;5077929;28;20112;-70
2022/10/20 05:51:14;;;;;;;5.55;2.03;;;;;;;;;;5077664;28;20057;-70
2022/10/20 05:53:40;;;;;;;4.15;1.58;;;;;;;;;;5076779;28;20032;-71
2022/10/20 05:56:07;;;;;;;2.95;1.17;;;;;;;;;;5076546;28;20045;-71
2022/10/20 05:58:33;;;;;;;4.53;1.38;;;;;;;;;;5077006;28;20044;-71
2022/10/20 06:01:16;;;;;;;5.13;1.35;;;;;;;;;;5076281;28;20044;-72
2022/10/20 06:03:42;;;;;;;2.83;1.20;;;;;;;;;;5076811;28;20613;-70
2022/10/20 06:06:08;;;;;;;3.30;1.30;;;;;;;;;;5053828;28;20044;-71
2022/10/20 06:08:34;;;;;;;4.50;1.65;;;;;;;;;;5053900;28;20044;-71
2022/10/20 06:11:05;;;;;;;3.28;2.25;;;;;;;;;;5052387;28;20040;-71
2022/10/20 06:13:31;;;;;;;5.72;1.45;;;;;;;;;;5076002;28;20106;-70
2022/10/20 06:16:07;;;;;;;5.22;3.28;;;;;;;;;;5053047;28;21368;-72
2022/10/20 06:18:33;;;;;;;3.35;1.50;;;;;;;;;;5053729;28;20044;-70
2022/10/20 06:21:04;;;;;;;4.90;2.10;;;;;;;;;;5053012;28;20112;-71
2022/10/20 06:23:30;;;;;;;5.03;3.35;;;;;;;;;;5052411;28;20048;-71
2022/10/20 06:26:01;;;;;;;4.25;2.00;;;;;;;;;;5078219;28;20040;-70
2022/10/20 06:28:28;;;;;;;4.77;2.07;;;;;;;;;;5059273;28;20070;-71
2022/10/20 06:30:54;;;;;;;3.13;1.73;;;;;;;;;;5058120;28;20147;-70
2022/10/20 06:33:20;;;;;;;11.90;3.10;;;;;;;;;;5068706;28;20045;-71
2022/10/20 06:35:46;;;;;;;5.05;1.70;;;;;;;;;;5049081;28;20041;-70
2022/10/20 06:38:12;;;;;;;5.80;1.80;;;;;;;;;;5067238;28;20450;-70
2022/10/20 06:40:39;;;;;;;4.68;1.45;;;;;;;;;;5076701;28;20037;-70
2022/10/20 06:43:05;;;;;;;5.43;1.65;;;;;;;;;;5042809;28;20071;-71
2022/10/20 06:45:31;;;;;;;7.15;2.10;;;;;;;;;;5056007;28;20044;-71
2022/10/20 06:47:57;;;;;;;4.45;1.48;;;;;;;;;;5053420;28;20040;-70
2022/10/20 06:50:23;;;;;;;5.68;1.98;;;;;;;;;;5070006;28;20095;-70
2022/10/20 06:52:49;;;;;;;4.13;2.03;;;;;;;;;;5048283;28;20049;-70
2022/10/20 06:55:15;;;;;;;3.40;1.33;;;;;;;;;;5052299;28;20043;-71
2022/10/20 06:57:41;;;;;;;4.53;1.77;;;;;;;;;;5051972;28;20123;-70
2022/10/20 07:00:08;;;;;;;3.55;1.50;;;;;;;;;;5076386;28;20071;-71
2022/10/20 07:02:34;;;;;;;4.55;2.15;;;;;;;;;;5056399;28;20533;-71
2022/10/20 07:05:00;;;;;;;2.35;1.45;;;;;;;;;;5066482;28;20047;-70
2022/10/20 07:07:26;;;;;;;1.92;1.00;;;;;;;;;;5076045;28;20045;-71
2022/10/20 07:09:52;;;;;;;2.10;1.48;;;;;;;;;;5052052;28;20511;-70
2022/10/20 07:12:18;;;;;;;2.83;1.20;;;;;;;;;;5055908;28;20048;-71
2022/10/20 07:14:44;;;;;;;5.15;1.75;;;;;;;;;;5071387;28;20168;-71
2022/10/20 07:17:10;;;;;;;5.43;1.73;;;;;;;;;;5041261;28;21097;-70
2022/10/20 07:19:36;;;;;;;4.07;1.20;;;;;;;;;;5071307;28;20119;-70
2022/10/20 07:22:02;;;;;;;3.38;1.42;;;;;;;;;;5076837;28;20123;-70
2022/10/20 07:24:28;;;;;;;3.08;1.02;;;;;;;;;;5051726;28;20519;-70
2022/10/20 07:26:55;;;;;;;2.10;1.02;;;;;;;;;;5058128;28;20083;-70
2022/10/20 07:29:21;;;;;;;4.95;2.17;;;;;;;;;;5076087;28;20474;-70
2022/10/20 07:31:47;;;;;;;3.05;1.13;;;;;;;;;;5058679;28;20059;-71
2022/10/20 07:34:14;;;;;;;2.28;1.55;;;;;;;;;;5075950;28;20040;-71
2022/10/20 07:36:42;;;;;;;2.50;1.13;;;;;;;;;;5057848;28;20140;-71
2022/10/20 07:39:08;;;;;;;4.55;1.65;;;;;;;;;;5076380;28;20033;-71
2022/10/20 07:41:36;;;;;;;2.95;1.20;;;;;;;;;;5051786;28;20053;-71
2022/10/20 07:44:03;;;;;;;2.58;1.20;;;;;;;;;;5076853;28;20036;-70
2022/10/20 07:46:29;;;;;;;2.90;1.35;;;;;;;;;;5051966;28;20056;-70
2022/10/20 07:48:55;;;;;;;5.60;1.70;;;;;;;;;;5074754;28;20574;-70
2022/10/20 07:51:24;;;;;;;2.85;1.30;;;;;;;;;;5052673;28;20064;-71
2022/10/20 07:53:51;;;;;;;2.83;1.25;;;;;;;;;;5075017;28;20586;-70
2022/10/20 07:56:19;;;;;;;3.25;1.67;;;;;;;;;;5080409;28;20048;-71
2022/10/20 07:58:45;;;;;;;5.15;1.65;;;;;;;;;;5079197;28;20036;-70
2022/10/20 08:01:11;;;;;;;6.72;2.55;;;;;;;;;;5078586;28;20049;-70
2022/10/20 08:03:38;;;;;;;3.92;1.60;;;;;;;;;;5058134;28;20128;-71
2022/10/20 08:06:04;;;;;;;3.92;1.88;;;;;;;;;;5076786;28;20035;-71
2022/10/20 08:08:30;;;;;;;5.35;1.50;;;;;;;;;;5072993;28;20047;-71
2022/10/20 08:10:59;;;;;;;4.75;1.98;;;;;;;;;;5077218;28;20064;-71
2022/10/20 08:13:25;;;;;;;7.25;2.00;;;;;;;;;;5079454;28;20045;-71
2022/10/20 08:15:52;;;;;;;6.95;1.65;;;;;;;;;;5078071;28;20048;-70
2022/10/20 08:18:18;;;;;;;6.85;2.22;;;;;;;;;;5078009;28;20094;-71
2022/10/20 08:20:44;;;;;;;5.90;2.17;;;;;;;;;;5078948;28;20051;-70
2022/10/20 08:23:11;;;;;;;4.90;2.10;;;;;;;;;;5071416;28;20363;-70
2022/10/20 08:25:37;;;;;;;6.53;2.15;;;;;;;;;;5077352;28;20127;-70
2022/10/20 08:28:03;;;;;;;3.45;1.77;;;;;;;;;;5055132;28;20045;-71
2022/10/20 08:30:29;;;;;;;4.28;1.80;;;;;;;;;;5076917;28;20052;-70
2022/10/20 08:32:55;;;;;;;4.55;1.95;;;;;;;;;;5080010;28;20051;-70
2022/10/20 08:35:22;;;;;;;5.72;1.58;;;;;;;;;;5078355;28;20055;-70
2022/10/20 08:37:48;;;;;;;4.95;1.52;;;;;;;;;;5079181;28;20112;-70
2022/10/20 08:40:20;;;;;;;3.53;2.08;;;;;;;;;;5076884;28;20047;-70
2022/10/20 08:42:47;;;;;;;3.97;1.77;;;;;;;;;;5053476;28;20482;-70
2022/10/20 08:45:15;;;;;;;2.22;1.10;;;;;;;;;;5077352;28;20052;-70
2022/10/20 08:47:41;;;;;;;5.15;1.60;;;;;;;;;;5053996;28;20048;-70
2022/10/20 08:50:10;;;;;;;2.03;1.50;;;;;;;;;;5053795;28;20532;-70
2022/10/20 08:52:36;;;;;;;2.50;1.55;;;;;;;;;;5076335;28;20044;-70
2022/10/20 08:55:03;;;;;;;2.78;1.48;;;;;;;;;;5054017;28;20123;-70
2022/10/20 08:57:31;;;;;;;4.28;1.92;;;;;;;;;;5054178;28;20040;-70
2022/10/20 09:00:26;;;;;;;8.18;1.50;;;;;;;;;;5060528;28;20108;-70
2022/10/20 09:02:53;;;;;;;5.15;1.52;;;;;;;;;;5049345;28;20045;-70
2022/10/20 09:05:28;;;;;;;3.05;1.38;;;;;;;;;;5079515;28;20153;-70
2022/10/20 09:07:54;;;;;;;2.85;1.38;;;;;;;;;;5059798;28;20041;-69
2022/10/20 09:10:20;;;;;;;5.18;1.73;;;;;;;;;;5079674;28;20949;-70
2022/10/20 09:12:47;;;;;;;4.10;1.55;;;;;;;;;;5076918;28;20147;-70
2022/10/20 09:15:15;;;;;;;2.45;1.40;;;;;;;;;;5076623;28;21240;-69
2022/10/20 09:17:42;;;;;;;4.95;1.52;;;;;;;;;;5079621;28;20051;-70
2022/10/20 09:20:15;;;;;;;2.53;1.17;;;;;;;;;;5054506;28;20128;-70
2022/10/20 09:22:41;;;;;;;2.47;1.45;;;;;;;;;;5054295;28;20071;-70
2022/10/20 09:25:12;;;;;;;3.13;1.20;;;;;;;;;;5078723;28;20127;-70
2022/10/20 09:27:40;;;;;;;4.85;1.75;;;;;;;;;;5078015;28;20111;-71
2022/10/20 09:30:13;;;;;;;3.17;1.17;;;;;;;;;;5076374;28;20489;-69
2022/10/20 09:32:39;;;;;;;3.85;1.10;;;;;;;;;;5060234;28;20036;-70
2022/10/20 09:35:23;;;;;;;3.10;1.00;;;;;;;;;;5078235;28;20036;-69
2022/10/20 09:37:59;;;;;;;1.88;0.95;;;;;;;;;;5059769;28;20541;-70
2022/10/20 09:40:26;;;;;;;4.70;1.75;;;;;;;;;;5077375;28;20060;-70
2022/10/20 09:42:55;;;;;;;2.45;1.80;;;;;;;;;;5045544;28;20036;-70
2022/10/20 09:45:23;;;;;;;2.55;1.42;;;;;;;;;;5056855;28;20040;-70
2022/10/20 09:47:54;;;;;;;2.17;1.30;;;;;;;;;;5076702;28;20086;-71
2022/10/20 09:50:26;;;;;;;1.38;0.90;;;;;;;;;;5076851;28;20062;-70
2022/10/20 09:52:53;;;;;;;2.58;1.50;;;;;;;;;;5056445;28;20039;-70
2022/10/20 09:55:25;;;;;;;5.43;2.25;;;;;;;;;;5085902;27;20041;-71
2022/10/20 09:57:52;;;;;;;6.35;1.40;;;;;;;;;;5075876;28;20537;-70
2022/10/20 10:00:22;;;;;;;3.22;1.25;;;;;;;;;;5078726;28;20041;-70
2022/10/20 10:02:49;;;;;;;2.72;1.50;;;;;;;;;;5074847;28;20048;-70
2022/10/20 10:05:19;;;;;;;4.30;2.40;;;;;;;;;;5053133;28;20033;-70
2022/10/20 10:07:56;;;;;;;2.88;1.10;;;;;;;;;;5052663;28;20040;-70
2022/10/20 10:10:27;;;;;;;2.58;1.05;;;;;;;;;;5058378;28;20045;-70
2022/10/20 10:12:54;;;;;;;3.10;1.27;;;;;;;;;;5092266;27;20136;-71
2022/10/20 10:15:28;;;;;;;2.03;1.30;;;;;;;;;;5077712;28;20055;-71
2022/10/20 10:17:54;;;;;;;5.97;1.70;;;;;;;;;;5062170;28;20037;-70
2022/10/20 10:20:34;;;;;;;4.30;1.50;;;;;;;;;;5075871;28;20094;-70
2022/10/20 10:23:18;;;;;;;3.97;1.20;;;;;;;;;;5056667;28;20037;-69
2022/10/20 10:25:44;;;;;;;2.40;1.20;;;;;;;;;;5075718;28;20037;-70
2022/10/20 10:28:29;;;;;;;2.78;1.25;;;;;;;;;;5053199;28;20331;-69
2022/10/20 10:31:05;;;;;;;2.45;1.33;;;;;;;;;;5074296;28;20052;-69
2022/10/20 10:33:32;;;;;;;1.80;1.10;;;;;;;;;;5058847;28;20041;-69
2022/10/20 10:36:01;;;;;;;5.10;1.60;;;;;;;;;;5052154;28;20060;-69
2022/10/20 10:38:27;;;;;;;1.63;1.10;;;;;;;;;;5054053;28;20036;-70
2022/10/20 10:41:16;;;;;;;3.97;1.50;;;;;;;;;;5056758;28;20505;-70
2022/10/20 10:43:45;;;;;;;7.97;1.30;;;;;;;;;;5052420;28;20045;-69
2022/10/20 10:46:14;;;;;;;2.25;1.15;;;;;;;;;;5075551;28;20086;-70
2022/10/20 10:48:41;;;;;;;6.38;1.60;;;;;;;;;;5052318;28;20102;-69
2022/10/20 10:51:33;;;;;;;2.97;1.70;;;;;;;;;;5072605;28;20056;-70
2022/10/20 10:54:02;;;;;;;2.60;1.15;;;;;;;;;;5048053;28;20044;-70
2022/10/20 10:56:28;;;;;;;4.35;1.48;;;;;;;;;;5052392;28;20053;-70
2022/10/20 10:58:54;;;;;;;3.63;1.40;;;;;;;;;;5051931;28;20041;-70
2022/10/20 11:01:38;;;;;;;3.53;1.85;;;;;;;;;;5055207;28;20053;-69
2022/10/20 11:04:10;;;;;;;3.35;1.75;;;;;;;;;;5073519;28;20065;-69
2022/10/20 11:06:36;;;;;;;1.70;1.10;;;;;;;;;;5077133;28;20040;-70
2022/10/20 11:09:02;;;;;;;2.13;1.20;;;;;;;;;;5052506;28;20032;-70
2022/10/20 11:11:38;;;;;;;3.60;1.10;;;;;;;;;;5051066;28;20036;-70
2022/10/20 11:14:05;;;;;;;2.78;1.13;;;;;;;;;;5057662;28;20123;-70
2022/10/20 11:16:37;;;;;;;3.50;1.40;;;;;;;;;;5051692;28;20044;-70
2022/10/20 11:19:06;;;;;;;3.42;1.27;;;;;;;;;;5049811;28;20041;-70
2022/10/20 11:21:33;;;;;;;3.38;1.33;;;;;;;;;;5046311;28;20145;-69
2022/10/20 11:24:08;;;;;;;1.67;1.20;;;;;;;;;;5073583;28;20044;-70
2022/10/20 11:26:35;;;;;;;3.05;1.30;;;;;;;;;;5074830;28;20036;-69
2022/10/20 11:29:03;;;;;;;4.75;1.20;;;;;;;;;;5050902;28;20037;-70
2022/10/20 11:31:46;;;;;;;3.67;1.83;;;;;;;;;;5057631;28;20049;-70
2022/10/20 11:34:12;;;;;;;3.00;1.10;;;;;;;;;;5077616;28;20048;-70
2022/10/20 11:36:44;;;;;;;6.18;1.20;;;;;;;;;;5051250;28;20099;-70
2022/10/20 11:39:17;;;;;;;1.95;1.10;;;;;;;;;;5057287;28;20049;-69
2022/10/20 11:41:48;;;;;;;2.92;1.40;;;;;;;;;;5076114;28;20131;-69
2022/10/20 11:44:15;;;;;;;3.58;0.95;;;;;;;;;;5075582;28;20084;-70
2022/10/20 11:46:45;;;;;;;2.88;1.25;;;;;;;;;;5057682;28;20044;-70
2022/10/20 11:49:12;;;;;;;3.50;1.35;;;;;;;;;;5076898;28;20045;-70
2022/10/20 11:51:44;;;;;;;2.85;1.23;;;;;;;;;;5051820;28;20053;-70
2022/10/20 11:54:11;;;;;;;3.83;1.00;;;;;;;;;;5051400;28;20097;-69
2022/10/20 11:56:43;;;;;;;2.65;1.08;;;;;;;;;;5076643;28;20722;-69
2022/10/20 11:59:22;;;;;;;1.88;1.10;;;;;;;;;;5052494;28;20243;-70
2022/10/20 12:01:54;;;;;;;4.28;1.38;;;;;;;;;;5050881;28;20140;-69
2022/10/20 12:04:39;;;;;;;5.05;1.60;;;;;;;;;;5060952;28;20473;-70
2022/10/20 12:07:12;;;;;;;2.00;1.20;;;;;;;;;;5076590;28;20041;-69
2022/10/20 12:10:13;;;;;;;2.30;0.82;;;;;;;;;;5050484;28;20044;-69
2022/10/20 12:12:45;;;;;;;5.75;1.40;;;;;;;;;;4996173;28;20049;-69
2022/10/20 12:15:20;;;;;;;4.57;1.63;;;;;;;;;;5065032;28;20545;-70
2022/10/20 12:17:46;;;;;;;5.20;1.60;;;;;;;;;;5050522;28;20064;-70
2022/10/20 12:20:21;;;;;;;4.30;1.30;;;;;;;;;;5075148;28;20068;-69
2022/10/20 12:22:48;;;;;;;4.55;1.63;;;;;;;;;;5058209;28;20083;-70
2022/10/20 12:25:17;;;;;;;4.97;1.30;;;;;;;;;;5055785;28;20033;-69
2022/10/20 12:27:44;;;;;;;3.95;2.13;;;;;;;;;;5056994;28;20044;-69
2022/10/20 12:30:29;;;;;;;2.70;1.40;;;;;;;;;;5075993;28;20056;-73
2022/10/20 12:32:59;;;;;;;2.65;1.65;;;;;;;;;;5072393;28;20082;-70
2022/10/20 12:35:29;;;;;;;4.95;1.77;;;;;;;;;;5073058;28;20040;-73
2022/10/20 12:37:57;;;;;;;5.22;1.52;;;;;;;;;;5044742;28;20048;-69
2022/10/20 12:40:43;;;;;;;3.03;2.30;;;;;;;;;;5050722;28;20076;-69
2022/10/20 12:43:23;;;;;;;3.28;1.60;;;;;;;;;;5060586;28;20146;-69
2022/10/20 12:45:49;;;;;;;2.80;0.98;;;;;;;;;;5062026;28;20037;-69
2022/10/20 12:48:20;;;;;;;2.33;1.15;;;;;;;;;;5054064;28;20352;-70
2022/10/20 12:50:48;;;;;;;3.88;1.73;;;;;;;;;;5078786;28;20037;-69
2022/10/20 12:53:17;;;;;;;2.65;1.20;;;;;;;;;;5078052;28;20067;-69
2022/10/20 12:55:45;;;;;;;3.40;1.30;;;;;;;;;;5077474;28;20097;-70
2022/10/20 12:58:17;;;;;;;6.93;1.65;;;;;;;;;;5077904;28;20033;-70
2022/10/20 13:00:46;;;;;;;2.05;1.10;;;;;;;;;;5053883;28;20048;-70
2022/10/20 13:03:31;;;;;;;2.63;1.50;;;;;;;;;;5077428;28;20044;-69
2022/10/20 13:06:00;;;;;;;4.22;1.25;;;;;;;;;;5076668;28;20136;-69
2022/10/20 13:08:27;;;;;;;3.72;1.73;;;;;;;;;;5069433;28;20041;-69
2022/10/20 13:10:53;;;;;;;2.70;1.92;;;;;;;;;;5043947;28;20049;-70
2022/10/20 13:13:19;;;;;;;4.00;1.52;;;;;;;;;;5079032;28;20047;-69
2022/10/20 13:15:46;;;;;;;3.20;1.48;;;;;;;;;;5059361;28;20059;-70
2022/10/20 13:18:12;;;;;;;6.07;2.38;;;;;;;;;;5052978;28;20048;-70
2022/10/20 13:20:48;;;;;;;3.00;1.42;;;;;;;;;;5078646;28;20044;-70
2022/10/20 13:23:37;;;;;;;3.72;1.50;;;;;;;;;;5079362;28;20045;-69
2022/10/20 13:26:15;;;;;;;2.97;1.52;;;;;;;;;;5054173;28;20048;-70
2022/10/20 13:28:45;;;;;;;7.25;1.70;;;;;;;;;;5078813;28;21034;-70
2022/10/20 13:31:24;;;;;;;5.63;1.70;;;;;;;;;;5076952;28;20048;-71
2022/10/20 13:34:10;;;;;;;4.78;2.17;;;;;;;;;;5054995;28;20402;-69
2022/10/20 13:36:39;;;;;;;6.20;2.33;;;;;;;;;;5067640;28;20367;-70
2022/10/20 13:39:12;;;;;;;2.85;1.48;;;;;;;;;;5079177;28;20063;-76
2022/10/20 13:41:44;;;;;;;4.25;2.85;;;;;;;;;;5061930;28;20091;-70
2022/10/20 13:44:30;;;;;;;5.50;2.10;;;;;;;;;;5079644;28;20597;-74
2022/10/20 13:46:56;;;;;;;4.80;2.08;;;;;;;;;;5079115;28;20522;-70
2022/10/20 13:49:41;;;;;;;6.03;2.45;;;;;;;;;;5054557;28;20569;-78
2022/10/20 13:52:15;;;;;;;5.25;2.60;;;;;;;;;;5075762;28;20064;-74
2022/10/20 13:54:43;;;;;;;12.95;2.55;;;;;;;;;;5059839;28;20514;-71
2022/10/20 13:57:18;;;;;;;6.07;2.47;;;;;;;;;;5068668;28;20128;-72
2022/10/20 13:59:54;;;;;;;5.85;2.05;;;;;;;;;;5077905;28;20044;-74
2022/10/20 14:02:29;;;;;;;7.25;1.98;;;;;;;;;;5060893;28;20090;-74
2022/10/20 14:05:03;;;;;;;4.22;2.90;;;;;;;;;;5078710;28;20041;-69
2022/10/20 14:07:39;;;;;;;6.47;3.03;;;;;;;;;;5058814;28;20041;-70
2022/10/20 14:10:06;;;;;;;9.48;2.33;;;;;;;;;;5051613;28;20144;-69
2022/10/20 14:12:32;;;;;;;15.10;3.55;;;;;;;;;;5079202;28;20554;-70
2022/10/20 14:14:58;;;;;;;9.60;2.70;;;;;;;;;;5053771;28;20068;-70
2022/10/20 14:17:25;;;;;;;5.78;2.63;;;;;;;;;;5078009;28;20064;-70
2022/10/20 14:20:07;;;;;;;5.90;2.75;;;;;;;;;;5052605;28;20099;-70
2022/10/20 14:22:34;;;;;;;4.30;1.98;;;;;;;;;;5059791;28;20068;-70
2022/10/20 14:25:04;;;;;;;13.23;2.95;;;;;;;;;;5058587;28;20562;-69
2022/10/20 14:27:31;;;;;;;6.53;2.20;;;;;;;;;;5077149;28;20601;-69
2022/10/20 14:29:58;;;;;;;7.60;2.63;;;;;;;;;;5075804;28;20052;-69
2022/10/20 14:32:28;;;;;;;5.30;1.70;;;;;;;;;;5043318;28;20103;-69
2022/10/20 14:35:02;;;;;;;8.10;2.72;;;;;;;;;;5064816;28;20056;-69
2022/10/20 14:37:35;;;;;;;6.80;2.88;;;;;;;;;;5078130;28;20079;-70
2022/10/20 14:40:02;;;;;;;5.82;2.40;;;;;;;;;;5076295;28;20047;-70
2022/10/20 14:42:30;;;;;;;5.88;2.20;;;;;;;;;;5078048;28;20041;-70
2022/10/20 14:44:57;;;;;;;6.85;2.97;;;;;;;;;;5076107;28;20036;-70
2022/10/20 14:47:23;;;;;;;5.50;2.20;;;;;;;;;;5078610;28;20039;-70
2022/10/20 14:49:51;;;;;;;3.70;2.35;;;;;;;;;;5078183;28;20109;-70
2022/10/20 14:52:17;;;;;;;7.72;3.25;;;;;;;;;;5084934;28;20048;-70